Hlavní strana
METAR-TAF:

METAR-TAF

Letiště :

Touggourt, Alžírsko

zeměpisná šířka: 33-07N, zeměpisná délka: 006-08E, výška: 85 m

Aktuální stav počasí

Zpráva byla vytvořena před 26 minutami, v 21:00 UTC
Východoseverovýchodní vítr 5 kt
Teplota 17°C
Vlhkost vzduchu 42%
Tlak 1020 hPa
Viditelnost 10 km a více
Žádná oblačnost pod 1500 m, nevyskytují se cumulonimby.

METAR: DAUK 282100Z 06005KT CAVOK 17/04 Q1020

Čas: 22:26 (21:26 UTC)

Předpověď počasí

Zpráva byla vytvořena před 1 hodinou a 26 minutami, v 20:00 UTC
Předpověď platná od 28 v 21 UTC do 01 v 06 UTC
Severovýchodní vítr 8 kt
Viditelnost 10 km a více
Žádná oblačnost pod 1500 m, nevyskytují se cumulonimby.
Pravděpodobnost 30% :
Dočasný
od 28 v 21 UTC do 28 v 24 UTC
Východoseverovýchodní vítr 18 kt
Viditelnost: 5000 m
nízko zvířený písek

TAF: DAUK 282000Z 2821/0106 04008KT CAVOK PROB30 TEMPO 2821/2824 07018KT 5000 DRSA

Stav a předpovědi počasí z více než 4 000 letišť (zprávy METAR a TAF).

Červené a žluté tečky na mapě představují dostupné meteorologické stanice.

Když kurzor umístíte na tečku, zobrazí se název stanice.

Pak kliknutím zobrazíte stav a předpověď počasí.

Chcete-li změnit mapu, kliknutím na zelené tlačítko se znaménkem +mapu přiblížíte, kliknutím na zelené tlačítko se znaménkem – mapu oddálíte a kliknutím na zelené šipky přejdete na sousední mapy.


METAR-TAF: